createdAt,value
2023-04-07T00:00:47.868Z,10.80
2023-04-07T00:03:21.890Z,11.10
2023-04-07T00:05:50.663Z,10.60
2023-04-07T00:08:18.888Z,12.10
2023-04-07T00:10:47.189Z,10.90
2023-04-07T00:13:15.532Z,9.80
2023-04-07T00:15:43.988Z,10.80
2023-04-07T00:18:12.216Z,9.50
2023-04-07T00:20:41.152Z,10.10
2023-04-07T00:23:09.356Z,9.40
2023-04-07T00:25:37.669Z,9.70
2023-04-07T00:28:05.902Z,8.60
2023-04-07T00:30:35.242Z,8.40
2023-04-07T00:33:03.644Z,9.00
2023-04-07T00:35:32.135Z,9.70
2023-04-07T00:38:00.432Z,9.50
2023-04-07T00:40:29.420Z,9.80
2023-04-07T00:42:57.691Z,9.30
2023-04-07T00:45:26.055Z,9.30
2023-04-07T00:47:54.367Z,8.50
2023-04-07T00:50:22.640Z,8.10
2023-04-07T00:52:51.852Z,7.00
2023-04-07T00:55:20.143Z,7.50
2023-04-07T00:57:48.410Z,6.90
2023-04-07T01:00:17.818Z,6.40
2023-04-07T01:02:59.396Z,7.30
2023-04-07T01:05:53.434Z,7.20
2023-04-07T01:08:27.579Z,7.00
2023-04-07T01:11:05.010Z,6.70
2023-04-07T01:14:00.928Z,6.90
2023-04-07T01:16:54.719Z,8.10
2023-04-07T01:19:49.118Z,6.90
2023-04-07T01:22:23.916Z,6.00
2023-04-07T01:25:16.789Z,7.30
2023-04-07T01:28:22.575Z,6.00
2023-04-07T01:30:54.308Z,6.30
2023-04-07T01:33:23.572Z,5.30
2023-04-07T01:35:53.128Z,5.80
2023-04-07T01:38:22.147Z,6.30
2023-04-07T01:40:51.563Z,7.30
2023-04-07T01:43:21.551Z,6.70
2023-04-07T01:45:51.657Z,7.40
2023-04-07T01:48:20.397Z,7.20
2023-04-07T01:50:50.313Z,6.00
2023-04-07T01:53:20.136Z,6.10
2023-04-07T01:55:50.988Z,7.00
2023-04-07T01:58:19.246Z,6.90
2023-04-07T02:00:47.515Z,5.70
2023-04-07T02:03:51.391Z,6.40
2023-04-07T02:06:24.997Z,7.40
2023-04-07T02:08:57.626Z,6.60
2023-04-07T02:11:27.631Z,7.70
2023-04-07T02:13:58.730Z,6.50
2023-04-07T02:16:30.615Z,6.80
2023-04-07T02:18:59.892Z,6.30
2023-04-07T02:21:30.779Z,7.40
2023-04-07T02:24:02.108Z,7.00
2023-04-07T02:26:36.700Z,7.30
2023-04-07T02:29:05.882Z,6.60
2023-04-07T02:31:34.184Z,7.30
2023-04-07T02:34:02.978Z,7.10
2023-04-07T02:36:31.648Z,7.30
2023-04-07T02:39:00.107Z,7.60
2023-04-07T02:41:28.434Z,7.20
2023-04-07T02:43:56.765Z,6.70
2023-04-07T02:46:25.614Z,7.20
2023-04-07T02:48:53.912Z,6.20
2023-04-07T02:51:22.131Z,6.60
2023-04-07T02:53:50.458Z,8.10
2023-04-07T02:56:19.369Z,7.50
2023-04-07T02:58:47.574Z,8.00
2023-04-07T03:01:16.239Z,8.20
2023-04-07T03:03:45.329Z,10.10
2023-04-07T03:06:19.079Z,9.20
2023-04-07T03:08:56.810Z,9.90
2023-04-07T03:11:25.068Z,8.60
2023-04-07T03:13:53.991Z,10.50
2023-04-07T03:16:22.599Z,10.20
2023-04-07T03:19:12.592Z,8.40
2023-04-07T03:21:44.266Z,8.30
2023-04-07T03:24:12.442Z,8.90
2023-04-07T03:26:42.222Z,9.80
2023-04-07T03:29:19.551Z,10.10
2023-04-07T03:31:47.803Z,10.90
2023-04-07T03:34:17.130Z,10.30
2023-04-07T03:36:45.405Z,9.40
2023-04-07T03:39:13.574Z,9.40
2023-04-07T03:41:41.831Z,10.10
2023-04-07T03:44:11.697Z,8.60
2023-04-07T03:46:40.266Z,9.70
2023-04-07T03:49:09.161Z,9.60
2023-04-07T03:51:37.666Z,8.80
2023-04-07T03:54:07.769Z,9.10
2023-04-07T03:56:40.285Z,9.80
2023-04-07T03:59:09.047Z,10.00
2023-04-07T04:01:41.477Z,10.10
2023-04-07T04:04:13.655Z,10.30
2023-04-07T04:06:42.355Z,9.50
2023-04-07T04:09:33.476Z,7.80
2023-04-07T04:12:01.836Z,10.30
2023-04-07T04:14:31.345Z,10.80
2023-04-07T04:17:02.550Z,10.10
2023-04-07T04:19:45.850Z,10.10
2023-04-07T04:22:21.174Z,11.20
2023-04-07T04:24:55.530Z,11.10
2023-04-07T04:27:24.580Z,11.50
2023-04-07T04:29:57.211Z,9.70
2023-04-07T04:32:34.776Z,9.80
2023-04-07T04:35:04.643Z,7.80
2023-04-07T04:37:33.965Z,9.60
2023-04-07T04:40:04.905Z,9.40
2023-04-07T04:42:34.158Z,9.60
2023-04-07T04:45:03.869Z,9.00
2023-04-07T04:47:33.114Z,8.30
2023-04-07T04:50:03.182Z,7.90
2023-04-07T04:52:32.794Z,8.60
2023-04-07T04:55:02.534Z,8.50
2023-04-07T04:57:31.736Z,9.70
2023-04-07T05:00:01.168Z,8.30
2023-04-07T05:02:30.207Z,8.40
2023-04-07T05:04:59.435Z,8.50
2023-04-07T05:07:30.178Z,8.70
2023-04-07T05:09:59.475Z,6.30
2023-04-07T05:12:30.993Z,8.40
2023-04-07T05:15:01.936Z,7.10
2023-04-07T05:17:30.286Z,9.30
2023-04-07T05:20:00.244Z,9.50
2023-04-07T05:22:36.591Z,9.50
2023-04-07T05:25:06.764Z,8.40
2023-04-07T05:27:38.300Z,8.80
2023-04-07T05:30:13.284Z,13.90
2023-04-07T05:32:41.679Z,18.90
2023-04-07T05:35:19.730Z,25.30
2023-04-07T05:37:52.633Z,9.90
2023-04-07T05:40:21.371Z,9.40
2023-04-07T05:42:49.891Z,8.20
2023-04-07T05:45:18.301Z,9.60
2023-04-07T05:47:51.453Z,11.30
2023-04-07T05:50:24.784Z,11.50
2023-04-07T05:52:53.256Z,12.80
2023-04-07T05:55:26.537Z,9.90
2023-04-07T05:57:57.744Z,8.50
2023-04-07T06:00:28.621Z,10.20
2023-04-07T06:03:04.051Z,10.30
2023-04-07T06:05:38.376Z,11.00
2023-04-07T06:08:06.849Z,14.60
2023-04-07T06:10:35.115Z,11.20
2023-04-07T06:13:03.468Z,9.10
2023-04-07T06:15:32.054Z,9.30
2023-04-07T06:18:00.671Z,10.50
2023-04-07T06:20:29.294Z,8.70
2023-04-07T06:22:58.933Z,11.30
2023-04-07T06:25:28.449Z,6.90
2023-04-07T06:27:56.879Z,8.50
2023-04-07T06:30:25.149Z,8.80
2023-04-07T06:32:56.744Z,8.50
2023-04-07T06:35:28.181Z,8.70
2023-04-07T06:37:57.176Z,9.60
2023-04-07T06:40:25.348Z,10.60
2023-04-07T06:42:54.829Z,10.20
2023-04-07T06:45:33.187Z,9.30
2023-04-07T06:48:01.949Z,10.70
2023-04-07T06:50:30.364Z,7.80
2023-04-07T06:52:58.748Z,9.40
2023-04-07T06:55:27.503Z,8.80
2023-04-07T06:57:56.286Z,11.70
2023-04-07T07:00:25.407Z,10.80
2023-04-07T07:02:56.001Z,11.20
2023-04-07T07:05:26.574Z,9.60
2023-04-07T07:07:54.998Z,11.20
2023-04-07T07:10:24.276Z,11.20
2023-04-07T07:12:52.638Z,11.30
2023-04-07T07:15:20.933Z,9.20
2023-04-07T07:17:49.090Z,8.90
2023-04-07T07:20:17.441Z,10.80
2023-04-07T07:22:46.137Z,11.20
2023-04-07T07:25:14.774Z,9.10
2023-04-07T07:27:43.090Z,9.10
2023-04-07T07:30:11.822Z,11.30
2023-04-07T07:32:40.703Z,10.80
2023-04-07T07:35:09.126Z,11.60
2023-04-07T07:37:37.412Z,11.70
2023-04-07T07:40:06.391Z,10.50
2023-04-07T07:42:35.743Z,15.40
2023-04-07T07:45:04.545Z,10.70
2023-04-07T07:47:33.485Z,10.20
2023-04-07T07:50:01.916Z,11.40
2023-04-07T07:52:30.165Z,12.30
2023-04-07T07:54:59.531Z,13.50
2023-04-07T07:57:28.035Z,21.90
2023-04-07T07:59:56.564Z,11.90
2023-04-07T08:02:30.991Z,11.20
2023-04-07T08:05:00.591Z,11.50
2023-04-07T08:07:29.200Z,11.30
2023-04-07T08:09:57.906Z,10.30
2023-04-07T08:12:26.259Z,15.20
2023-04-07T08:14:54.547Z,10.80
2023-04-07T08:17:22.857Z,10.40
2023-04-07T08:19:54.320Z,10.70
2023-04-07T08:22:22.791Z,11.00
2023-04-07T08:24:51.161Z,11.50
2023-04-07T08:27:21.029Z,10.90
2023-04-07T08:30:03.046Z,12.70
2023-04-07T08:32:39.276Z,10.30
2023-04-07T08:35:08.285Z,10.80
2023-04-07T08:37:37.802Z,11.00
2023-04-07T08:40:10.180Z,12.50
2023-04-07T08:42:42.527Z,10.60
2023-04-07T08:45:11.078Z,12.30
2023-04-07T08:47:44.528Z,11.80
2023-04-07T08:50:18.034Z,13.00
2023-04-07T08:52:51.597Z,13.20
2023-04-07T08:55:20.501Z,11.90
2023-04-07T08:57:48.873Z,12.30
2023-04-07T09:00:19.812Z,13.60
2023-04-07T09:02:50.201Z,12.10
2023-04-07T09:05:18.527Z,9.80
2023-04-07T09:07:47.504Z,11.50
2023-04-07T09:10:17.618Z,11.40
2023-04-07T09:12:46.277Z,11.20
2023-04-07T09:15:14.576Z,11.10
2023-04-07T09:17:43.495Z,12.30
2023-04-07T09:20:11.949Z,10.40
2023-04-07T09:22:43.173Z,11.80
2023-04-07T09:25:27.417Z,10.10
2023-04-07T09:27:58.826Z,12.00
2023-04-07T09:30:28.764Z,10.10
2023-04-07T09:32:59.269Z,11.90
2023-04-07T09:35:28.941Z,11.30
2023-04-07T09:38:08.689Z,11.90
2023-04-07T09:40:40.042Z,12.40
2023-04-07T09:43:20.377Z,13.20
2023-04-07T09:45:48.946Z,11.20
2023-04-07T09:48:22.129Z,10.80
2023-04-07T09:50:51.927Z,12.10
2023-04-07T09:53:20.444Z,11.40
2023-04-07T09:55:50.668Z,12.20
2023-04-07T09:58:20.051Z,11.40
2023-04-07T10:00:49.397Z,11.80
2023-04-07T10:03:18.295Z,11.30
2023-04-07T10:05:47.151Z,11.80
2023-04-07T10:08:16.299Z,11.50
2023-04-07T10:10:44.773Z,12.20
2023-04-07T10:13:13.354Z,10.50
2023-04-07T10:15:43.015Z,11.70
2023-04-07T10:18:12.130Z,10.10
2023-04-07T10:20:42.872Z,10.90
2023-04-07T10:23:23.135Z,10.50
2023-04-07T10:25:55.191Z,13.40
2023-04-07T10:28:26.666Z,10.00
2023-04-07T10:30:55.916Z,10.70
2023-04-07T10:33:49.097Z,11.20
2023-04-07T10:36:23.090Z,11.20
2023-04-07T10:39:10.049Z,12.00
2023-04-07T10:41:41.090Z,16.20
2023-04-07T10:44:17.225Z,10.80
2023-04-07T10:46:45.417Z,13.60
2023-04-07T10:49:16.288Z,11.70
2023-04-07T10:52:12.335Z,10.80
2023-04-07T10:54:41.821Z,10.40
2023-04-07T10:57:16.196Z,11.30
2023-04-07T11:00:11.846Z,12.10
2023-04-07T11:02:40.666Z,14.20
2023-04-07T11:05:21.527Z,12.20
2023-04-07T11:07:52.351Z,13.10
2023-04-07T11:10:22.376Z,11.30
2023-04-07T11:13:06.566Z,13.70
2023-04-07T11:15:39.416Z,13.60
2023-04-07T11:18:18.023Z,13.70
2023-04-07T11:20:48.783Z,12.90
2023-04-07T11:23:18.697Z,12.90
2023-04-07T11:25:49.471Z,14.30
2023-04-07T11:28:18.324Z,14.90
2023-04-07T11:30:52.352Z,14.30
2023-04-07T11:33:29.358Z,15.20
2023-04-07T11:36:02.001Z,12.90
2023-04-07T11:38:39.131Z,15.10
2023-04-07T11:41:12.782Z,13.30
2023-04-07T11:43:42.580Z,18.10
2023-04-07T11:46:18.939Z,20.20
2023-04-07T11:48:47.659Z,15.50
2023-04-07T11:51:22.856Z,15.90
2023-04-07T11:53:56.565Z,14.00
2023-04-07T11:56:28.446Z,13.10
2023-04-07T11:58:58.436Z,13.90
2023-04-07T12:01:40.980Z,14.20
2023-04-07T12:04:14.156Z,13.20
2023-04-07T12:06:51.187Z,14.00
2023-04-07T12:09:29.482Z,13.10
2023-04-07T12:11:59.473Z,13.60
2023-04-07T12:14:28.046Z,14.60
2023-04-07T12:16:58.281Z,14.60
2023-04-07T12:19:28.483Z,14.10
2023-04-07T12:21:57.288Z,13.10
2023-04-07T12:24:26.934Z,13.00
2023-04-07T12:26:55.401Z,13.50
2023-04-07T12:29:24.329Z,13.80
2023-04-07T12:31:52.632Z,13.70
2023-04-07T12:34:20.964Z,12.40
2023-04-07T12:36:50.174Z,12.80
2023-04-07T12:39:18.565Z,14.20
2023-04-07T12:41:48.762Z,11.40
2023-04-07T12:44:16.965Z,13.40
2023-04-07T12:46:45.634Z,13.60
2023-04-07T12:49:14.161Z,12.70
2023-04-07T12:51:42.472Z,12.60
2023-04-07T12:54:11.036Z,13.40
2023-04-07T12:56:41.124Z,14.80
2023-04-07T12:59:09.910Z,13.90
2023-04-07T13:01:38.623Z,12.60
2023-04-07T13:04:07.726Z,12.10
2023-04-07T13:06:38.899Z,13.10
2023-04-07T13:09:07.244Z,13.50
2023-04-07T13:11:36.426Z,13.30
2023-04-07T13:14:07.513Z,13.70
2023-04-07T13:16:36.043Z,13.30
2023-04-07T13:19:04.512Z,12.30
2023-04-07T13:21:46.225Z,12.10
2023-04-07T13:24:16.497Z,13.70
2023-04-07T13:26:44.782Z,12.70
2023-04-07T13:29:15.286Z,13.90
2023-04-07T13:31:46.208Z,12.90
2023-04-07T13:34:16.017Z,12.80
2023-04-07T13:36:44.546Z,13.80
2023-04-07T13:39:13.671Z,13.00
2023-04-07T13:41:42.052Z,12.10
2023-04-07T13:44:10.576Z,12.90
2023-04-07T13:46:39.227Z,12.90
2023-04-07T13:49:09.274Z,13.40
2023-04-07T13:51:38.126Z,12.80
2023-04-07T13:54:06.750Z,14.80
2023-04-07T13:56:35.809Z,13.00
2023-04-07T13:59:08.960Z,12.80
2023-04-07T14:01:39.295Z,13.10
2023-04-07T14:04:08.306Z,12.70
2023-04-07T14:06:39.956Z,12.20
2023-04-07T14:09:08.664Z,12.40
2023-04-07T14:11:37.213Z,12.50
2023-04-07T14:14:06.481Z,12.60
2023-04-07T14:16:34.973Z,12.70
2023-04-07T14:19:04.922Z,12.50
2023-04-07T14:21:34.038Z,12.80
2023-04-07T14:24:02.875Z,13.40
2023-04-07T14:26:31.531Z,13.00
2023-04-07T14:29:00.133Z,13.80
2023-04-07T14:31:28.969Z,13.60
2023-04-07T14:33:57.832Z,12.10
2023-04-07T14:36:27.498Z,13.30
2023-04-07T14:38:55.835Z,13.40
2023-04-07T14:41:27.764Z,13.60
2023-04-07T14:43:56.703Z,12.00
2023-04-07T14:46:27.940Z,14.20
2023-04-07T14:48:58.691Z,12.90
2023-04-07T14:51:27.693Z,13.30
2023-04-07T14:53:57.961Z,12.40
2023-04-07T14:56:27.508Z,13.50
2023-04-07T14:58:59.072Z,13.50
2023-04-07T15:01:27.590Z,14.80
2023-04-07T15:03:58.722Z,13.90
2023-04-07T15:06:28.577Z,13.70
2023-04-07T15:08:59.586Z,14.70
2023-04-07T15:11:27.908Z,13.20
2023-04-07T15:13:56.196Z,14.90
2023-04-07T15:16:25.015Z,12.50
2023-04-07T15:18:53.967Z,13.90
2023-04-07T15:21:22.154Z,13.30
2023-04-07T15:23:50.926Z,14.60
2023-04-07T15:26:19.414Z,13.90
2023-04-07T15:28:47.757Z,14.40
2023-04-07T15:31:16.059Z,14.10
2023-04-07T15:33:44.570Z,12.90
2023-04-07T15:36:15.195Z,15.10
2023-04-07T15:38:50.880Z,13.70
2023-04-07T15:41:19.202Z,14.40
2023-04-07T15:43:47.795Z,14.90
2023-04-07T15:46:18.512Z,13.20
2023-04-07T15:48:48.160Z,13.20
2023-04-07T15:51:16.606Z,13.90
2023-04-07T15:53:44.913Z,13.20
2023-04-07T15:56:13.832Z,12.20
2023-04-07T15:58:42.259Z,11.70
2023-04-07T16:01:11.018Z,11.30
2023-04-07T16:03:41.073Z,10.50
2023-04-07T16:06:13.090Z,11.10
2023-04-07T16:08:41.643Z,10.60
2023-04-07T16:11:12.474Z,11.70
2023-04-07T16:13:43.756Z,12.80
2023-04-07T16:16:17.228Z,13.10
2023-04-07T16:18:49.013Z,14.80
2023-04-07T16:21:18.474Z,12.60
2023-04-07T16:24:00.667Z,12.90
2023-04-07T16:26:31.413Z,14.10
2023-04-07T16:29:02.863Z,13.70
2023-04-07T16:31:31.283Z,15.10
2023-04-07T16:34:00.581Z,15.90
2023-04-07T16:36:30.254Z,15.60
2023-04-07T16:38:58.869Z,16.50
2023-04-07T16:41:30.432Z,19.00
2023-04-07T16:43:58.974Z,19.30
2023-04-07T16:46:28.891Z,19.10
2023-04-07T16:49:00.630Z,18.20
2023-04-07T16:51:33.468Z,14.60
2023-04-07T16:54:03.712Z,14.10
2023-04-07T16:56:31.898Z,16.00
2023-04-07T16:59:01.911Z,14.90
2023-04-07T17:01:31.786Z,15.20
2023-04-07T17:04:02.719Z,15.20
2023-04-07T17:06:34.936Z,14.10
2023-04-07T17:09:06.091Z,13.70
2023-04-07T17:11:34.376Z,12.90
2023-04-07T17:14:05.216Z,13.50
2023-04-07T17:16:36.764Z,13.00
2023-04-07T17:19:06.398Z,13.90
2023-04-07T17:21:34.801Z,13.20
2023-04-07T17:24:02.994Z,13.70
2023-04-07T17:26:31.575Z,13.50
2023-04-07T17:29:00.041Z,13.00
2023-04-07T17:31:28.290Z,13.80
2023-04-07T17:33:56.758Z,11.40
2023-04-07T17:36:25.194Z,13.20
2023-04-07T17:38:53.451Z,12.80
2023-04-07T17:41:22.935Z,13.80
2023-04-07T17:43:53.813Z,13.30
2023-04-07T17:46:23.441Z,14.90
2023-04-07T17:48:55.225Z,14.10
2023-04-07T17:51:25.695Z,15.30
2023-04-07T17:53:59.140Z,15.20
2023-04-07T17:56:30.969Z,15.10
2023-04-07T17:59:01.815Z,15.40
2023-04-07T18:01:35.327Z,17.10
2023-04-07T18:04:07.026Z,17.80
2023-04-07T18:06:36.942Z,18.10
2023-04-07T18:09:07.343Z,19.60
2023-04-07T18:11:37.344Z,18.20
2023-04-07T18:14:09.954Z,20.80
2023-04-07T18:16:39.416Z,20.50
2023-04-07T18:19:07.642Z,18.70
2023-04-07T18:21:37.917Z,21.50
2023-04-07T18:24:12.635Z,19.40
2023-04-07T18:26:59.446Z,19.70
2023-04-07T18:29:34.558Z,17.50
2023-04-07T18:32:03.011Z,20.60
2023-04-07T18:34:36.796Z,18.40
2023-04-07T18:37:07.530Z,18.30
2023-04-07T18:39:38.337Z,18.50
2023-04-07T18:42:06.856Z,20.40
2023-04-07T18:44:40.261Z,21.30
2023-04-07T18:47:10.148Z,20.40
2023-04-07T18:49:40.077Z,21.10
2023-04-07T18:52:10.391Z,19.70
2023-04-07T18:54:38.728Z,24.70
2023-04-07T18:57:06.909Z,29.50
2023-04-07T18:59:36.872Z,28.80
2023-04-07T19:02:05.374Z,21.10
2023-04-07T19:04:34.590Z,21.50
2023-04-07T19:07:03.646Z,21.60
2023-04-07T19:09:33.476Z,22.90
2023-04-07T19:12:01.922Z,25.00
2023-04-07T19:14:35.630Z,24.30
2023-04-07T19:17:06.695Z,25.70
2023-04-07T19:19:37.710Z,25.90
2023-04-07T19:22:06.128Z,24.00
2023-04-07T19:24:34.361Z,25.30
2023-04-07T19:27:07.293Z,23.40
2023-04-07T19:29:36.045Z,21.80
2023-04-07T19:32:04.807Z,19.40
2023-04-07T19:34:36.105Z,20.20
2023-04-07T19:37:10.643Z,20.70
2023-04-07T19:39:39.373Z,19.90
2023-04-07T19:42:09.201Z,18.40
2023-04-07T19:44:40.486Z,18.00
2023-04-07T19:47:12.236Z,18.10
2023-04-07T19:49:41.100Z,17.80
2023-04-07T19:52:12.406Z,17.30
2023-04-07T19:54:41.213Z,19.00
2023-04-07T19:57:11.822Z,17.20
2023-04-07T19:59:43.126Z,17.20
2023-04-07T20:02:11.622Z,18.70
2023-04-07T20:04:43.071Z,17.50
2023-04-07T20:07:13.375Z,18.60
2023-04-07T20:09:41.679Z,18.00
2023-04-07T20:12:12.379Z,20.50
2023-04-07T20:14:41.347Z,18.60
2023-04-07T20:17:12.509Z,19.90
2023-04-07T20:19:41.806Z,21.10
2023-04-07T20:22:13.108Z,20.60
2023-04-07T20:24:43.863Z,21.20
2023-04-07T20:27:13.041Z,21.60
2023-04-07T20:29:46.290Z,22.40
2023-04-07T20:32:16.924Z,21.60
2023-04-07T20:34:51.966Z,22.10
2023-04-07T20:37:23.264Z,21.40
2023-04-07T20:39:58.147Z,19.60
2023-04-07T20:42:27.552Z,20.80
2023-04-07T20:45:03.915Z,18.40
2023-04-07T20:47:32.689Z,18.20
2023-04-07T20:50:02.535Z,17.70
2023-04-07T20:52:40.298Z,18.70
2023-04-07T20:55:11.761Z,18.80
2023-04-07T20:57:42.253Z,20.50
2023-04-07T21:00:11.134Z,20.30
2023-04-07T21:02:39.525Z,20.80
2023-04-07T21:05:09.379Z,21.00
2023-04-07T21:07:37.759Z,20.60
2023-04-07T21:10:07.541Z,19.40
2023-04-07T21:12:36.760Z,19.00
2023-04-07T21:15:05.492Z,18.70
2023-04-07T21:17:33.952Z,19.10
2023-04-07T21:20:02.180Z,19.80
2023-04-07T21:22:35.700Z,19.30
2023-04-07T21:25:07.192Z,20.00
2023-04-07T21:27:36.345Z,21.40
2023-04-07T21:30:06.604Z,22.10
2023-04-07T21:32:35.025Z,21.50
2023-04-07T21:35:04.841Z,19.90
2023-04-07T21:37:33.292Z,19.70
2023-04-07T21:40:01.579Z,19.00
2023-04-07T21:42:29.939Z,19.60
2023-04-07T21:44:59.626Z,21.20
2023-04-07T21:47:27.909Z,19.30
2023-04-07T21:49:58.014Z,19.40
2023-04-07T21:52:26.660Z,19.50
2023-04-07T21:54:54.872Z,19.40
2023-04-07T21:57:23.711Z,20.20
2023-04-07T21:59:52.791Z,20.40
2023-04-07T22:02:22.109Z,20.00
2023-04-07T22:04:50.793Z,19.70
2023-04-07T22:07:22.286Z,19.10
2023-04-07T22:09:51.533Z,19.30
2023-04-07T22:12:19.731Z,18.50
2023-04-07T22:14:47.924Z,18.50
2023-04-07T22:17:17.207Z,19.90
2023-04-07T22:19:45.661Z,20.00
2023-04-07T22:22:14.200Z,20.30
2023-04-07T22:24:42.559Z,19.70
2023-04-07T22:27:11.467Z,20.80
2023-04-07T22:29:39.648Z,20.90
2023-04-07T22:32:07.825Z,19.60
2023-04-07T22:34:36.563Z,19.70
2023-04-07T22:37:04.839Z,19.10
2023-04-07T22:39:33.045Z,19.60
2023-04-07T22:42:02.797Z,19.30
2023-04-07T22:44:31.316Z,17.80
2023-04-07T22:46:59.671Z,18.60
2023-04-07T22:49:28.401Z,18.50
2023-04-07T22:51:57.429Z,18.00
2023-04-07T22:54:25.783Z,19.00
2023-04-07T22:56:54.079Z,19.60
2023-04-07T22:59:25.020Z,19.60
2023-04-07T23:01:53.821Z,20.60
2023-04-07T23:04:22.918Z,19.70
2023-04-07T23:06:51.792Z,19.30
2023-04-07T23:09:21.727Z,18.00
2023-04-07T23:11:50.069Z,20.00
2023-04-07T23:14:18.268Z,19.90
2023-04-07T23:16:46.910Z,19.20
2023-04-07T23:19:18.006Z,18.20
2023-04-07T23:21:46.295Z,19.10
2023-04-07T23:24:15.017Z,20.10
2023-04-07T23:26:43.277Z,19.70
2023-04-07T23:29:12.889Z,19.60
2023-04-07T23:31:41.705Z,18.30
2023-04-07T23:34:09.996Z,20.20
2023-04-07T23:36:41.163Z,19.60
2023-04-07T23:39:09.360Z,20.40
2023-04-07T23:41:38.558Z,20.60
2023-04-07T23:44:07.488Z,21.60
2023-04-07T23:46:35.692Z,20.80
2023-04-07T23:49:04.112Z,21.70
2023-04-07T23:51:32.460Z,21.10
2023-04-07T23:54:01.265Z,20.90
2023-04-07T23:56:30.182Z,22.00
2023-04-07T23:58:58.401Z,19.60
